createdAt,value
2022-11-28T00:01:20.512Z,6.37
2022-11-28T00:03:47.735Z,6.93
2022-11-28T00:06:14.801Z,7.77
2022-11-28T00:08:41.551Z,7.13
2022-11-28T00:11:10.143Z,7.30
2022-11-28T00:13:37.076Z,7.37
2022-11-28T00:16:05.399Z,7.53
2022-11-28T00:18:32.210Z,7.60
2022-11-28T00:21:07.981Z,6.50
2022-11-28T00:23:34.733Z,6.93
2022-11-28T00:26:04.511Z,7.73
2022-11-28T00:28:31.161Z,7.20
2022-11-28T00:30:57.574Z,6.83
2022-11-28T00:33:24.248Z,6.80
2022-11-28T00:35:50.817Z,6.63
2022-11-28T00:38:17.320Z,6.63
2022-11-28T00:40:43.722Z,7.57
2022-11-28T00:43:11.605Z,7.17
2022-11-28T00:45:38.075Z,7.17
2022-11-28T00:48:04.805Z,6.77
2022-11-28T00:50:31.291Z,6.43
2022-11-28T00:52:57.693Z,6.20
2022-11-28T00:55:24.102Z,6.67
2022-11-28T00:57:50.566Z,6.90
2022-11-28T01:00:17.214Z,6.77
2022-11-28T01:02:43.729Z,6.70
2022-11-28T01:05:10.212Z,6.40
2022-11-28T01:07:37.242Z,6.90
2022-11-28T01:10:04.058Z,6.93
2022-11-28T01:12:30.480Z,6.20
2022-11-28T01:14:58.187Z,6.83
2022-11-28T01:17:24.635Z,6.70
2022-11-28T01:19:51.042Z,6.33
2022-11-28T01:22:17.462Z,6.23
2022-11-28T01:24:44.063Z,6.53
2022-11-28T01:27:10.732Z,6.10
2022-11-28T01:29:37.173Z,6.33
2022-11-28T01:32:03.710Z,5.93
2022-11-28T01:34:30.132Z,6.00
2022-11-28T01:36:56.636Z,7.00
2022-11-28T01:39:23.097Z,7.03
2022-11-28T01:41:49.525Z,6.33
2022-11-28T01:44:15.834Z,6.43
2022-11-28T01:46:42.857Z,7.30
2022-11-28T01:49:18.844Z,6.60
2022-11-28T01:51:49.220Z,7.67
2022-11-28T01:54:16.814Z,6.80
2022-11-28T01:56:57.055Z,6.80
2022-11-28T01:59:26.731Z,7.07
2022-11-28T02:01:53.274Z,7.50
2022-11-28T02:04:19.845Z,7.70
2022-11-28T02:06:46.275Z,7.73
2022-11-28T02:09:15.902Z,7.10
2022-11-28T02:11:59.784Z,8.17
2022-11-28T02:14:40.519Z,7.43
2022-11-28T02:17:43.496Z,6.90
2022-11-28T02:20:09.793Z,7.57
2022-11-28T02:22:51.176Z,7.77
2022-11-28T02:25:39.011Z,6.80
2022-11-28T02:28:11.300Z,7.40
2022-11-28T02:31:36.854Z,6.93
2022-11-28T02:34:38.232Z,6.73
2022-11-28T02:37:13.193Z,7.37
2022-11-28T02:39:57.797Z,7.23
2022-11-28T02:43:01.506Z,6.67
2022-11-28T02:45:38.930Z,6.93
2022-11-28T02:48:10.871Z,6.73
2022-11-28T02:50:49.739Z,7.17
2022-11-28T02:53:20.412Z,6.67
2022-11-28T02:55:48.053Z,7.37
2022-11-28T02:58:14.606Z,6.50
2022-11-28T03:00:43.692Z,7.00
2022-11-28T03:03:27.083Z,6.30
2022-11-28T03:06:15.984Z,6.60
2022-11-28T03:08:48.152Z,6.33
2022-11-28T03:11:54.835Z,6.57
2022-11-28T03:14:50.812Z,6.23
2022-11-28T03:17:35.932Z,6.73
2022-11-28T03:20:08.491Z,7.13
2022-11-28T03:22:58.737Z,7.20
2022-11-28T03:25:40.531Z,6.97
2022-11-28T03:28:14.867Z,6.97
2022-11-28T03:30:47.351Z,6.53
2022-11-28T03:33:16.082Z,7.67
2022-11-28T03:35:46.725Z,7.23
2022-11-28T03:38:20.223Z,7.67
2022-11-28T03:40:50.231Z,7.13
2022-11-28T03:43:20.375Z,7.00
2022-11-28T03:45:56.864Z,7.77
2022-11-28T03:48:47.551Z,7.00
2022-11-28T03:51:27.183Z,7.43
2022-11-28T03:53:56.597Z,7.50
2022-11-28T03:56:29.877Z,8.30
2022-11-28T03:59:16.869Z,7.77
2022-11-28T04:02:03.644Z,7.60
2022-11-28T04:04:48.829Z,6.93
2022-11-28T04:07:21.279Z,7.67
2022-11-28T04:09:51.687Z,7.40
2022-11-28T04:12:33.147Z,6.90
2022-11-28T04:15:29.126Z,7.93
2022-11-28T04:18:03.144Z,7.40
2022-11-28T04:20:33.925Z,7.47
2022-11-28T04:23:05.508Z,7.03
2022-11-28T04:25:35.365Z,6.90
2022-11-28T04:28:07.366Z,7.07
2022-11-28T04:30:34.465Z,7.17
2022-11-28T04:33:03.780Z,7.07
2022-11-28T04:35:34.005Z,6.80
2022-11-28T04:38:01.516Z,6.93
2022-11-28T04:40:30.789Z,7.00
2022-11-28T04:43:07.719Z,8.33
2022-11-28T04:45:37.775Z,7.57
2022-11-28T04:48:04.812Z,7.57
2022-11-28T04:50:37.990Z,7.50
2022-11-28T04:53:16.269Z,8.07
2022-11-28T04:55:49.237Z,7.37
2022-11-28T04:58:50.544Z,7.70
2022-11-28T05:01:22.407Z,8.27
2022-11-28T05:03:49.300Z,7.33
2022-11-28T05:06:30.701Z,7.67
2022-11-28T05:08:57.642Z,6.87
2022-11-28T05:11:24.713Z,7.43
2022-11-28T05:13:51.253Z,7.50
2022-11-28T05:16:18.397Z,7.43
2022-11-28T05:18:45.072Z,7.37
2022-11-28T05:21:14.863Z,7.30
2022-11-28T05:23:43.412Z,7.80
2022-11-28T05:26:12.124Z,8.17
2022-11-28T05:28:38.966Z,7.83
2022-11-28T05:31:05.894Z,7.47
2022-11-28T05:33:33.168Z,8.00
2022-11-28T05:36:11.379Z,7.80
2022-11-28T05:38:39.620Z,8.07
2022-11-28T05:41:06.362Z,7.20
2022-11-28T05:43:32.905Z,7.93
2022-11-28T05:45:59.391Z,7.83
2022-11-28T05:48:25.893Z,8.37
2022-11-28T05:50:52.393Z,7.83
2022-11-28T05:53:20.074Z,7.93
2022-11-28T05:55:46.714Z,8.10
2022-11-28T05:58:13.147Z,7.53
2022-11-28T06:00:39.556Z,7.87
2022-11-28T06:03:07.072Z,7.47
2022-11-28T06:05:43.994Z,7.80
2022-11-28T06:08:13.897Z,7.90
2022-11-28T06:10:40.659Z,7.93
2022-11-28T06:13:07.134Z,8.93
2022-11-28T06:15:37.788Z,7.67
2022-11-28T06:18:04.914Z,8.40
2022-11-28T06:20:31.325Z,7.67
2022-11-28T06:22:57.745Z,8.30
2022-11-28T06:25:24.210Z,8.60
2022-11-28T06:27:50.614Z,7.97
2022-11-28T06:30:17.331Z,9.30
2022-11-28T06:32:43.813Z,8.13
2022-11-28T06:35:10.274Z,9.40
2022-11-28T06:37:36.812Z,7.97
2022-11-28T06:40:03.853Z,8.37
2022-11-28T06:42:30.300Z,8.77
2022-11-28T06:44:56.712Z,9.27
2022-11-28T06:47:23.171Z,8.67
2022-11-28T06:49:49.736Z,8.33
2022-11-28T06:52:16.135Z,8.27
2022-11-28T06:54:42.607Z,8.37
2022-11-28T06:57:09.092Z,8.50
2022-11-28T06:59:35.537Z,8.27
2022-11-28T07:02:07.474Z,8.47
2022-11-28T07:04:34.515Z,7.43
2022-11-28T07:07:00.942Z,8.33
2022-11-28T07:09:27.503Z,7.53
2022-11-28T07:11:53.935Z,7.57
2022-11-28T07:14:20.382Z,7.97
2022-11-28T07:16:49.024Z,7.13
2022-11-28T07:19:15.894Z,7.80
2022-11-28T07:21:42.436Z,8.33
2022-11-28T07:24:08.973Z,7.70
2022-11-28T07:26:37.880Z,7.90
2022-11-28T07:29:06.880Z,8.20
2022-11-28T07:31:33.797Z,7.67
2022-11-28T07:34:02.203Z,7.33
2022-11-28T07:36:29.272Z,7.67
2022-11-28T07:39:00.786Z,8.50
2022-11-28T07:41:27.855Z,7.40
2022-11-28T07:43:56.521Z,7.10
2022-11-28T07:46:23.169Z,7.57
2022-11-28T07:48:49.841Z,7.80
2022-11-28T07:51:22.364Z,7.03
2022-11-28T07:53:49.317Z,6.93
2022-11-28T07:56:18.431Z,7.97
2022-11-28T07:58:45.765Z,6.97
2022-11-28T08:01:14.302Z,7.20
2022-11-28T08:03:40.882Z,7.50
2022-11-28T08:06:08.317Z,7.17
2022-11-28T08:08:34.924Z,7.20
2022-11-28T08:11:04.832Z,7.30
2022-11-28T08:13:31.431Z,6.43
2022-11-28T08:15:57.969Z,6.37
2022-11-28T08:18:24.434Z,6.70
2022-11-28T08:20:51.462Z,6.47
2022-11-28T08:23:17.883Z,6.50
2022-11-28T08:25:44.281Z,6.83
2022-11-28T08:28:10.751Z,6.37
2022-11-28T08:30:37.193Z,6.70
2022-11-28T08:33:04.362Z,6.23
2022-11-28T08:35:31.036Z,6.60
2022-11-28T08:38:01.644Z,6.60
2022-11-28T08:40:28.744Z,6.13
2022-11-28T08:42:55.729Z,5.97
2022-11-28T08:45:22.123Z,6.30
2022-11-28T08:47:48.530Z,6.80
2022-11-28T08:50:14.952Z,6.23
2022-11-28T08:52:41.375Z,6.20
2022-11-28T08:55:09.076Z,6.07
2022-11-28T08:57:35.491Z,6.20
2022-11-28T09:00:02.104Z,6.40
2022-11-28T09:02:28.517Z,6.50
2022-11-28T09:04:54.928Z,7.20
2022-11-28T09:07:21.417Z,7.13
2022-11-28T09:09:48.400Z,7.50
2022-11-28T09:12:15.062Z,6.43
2022-11-28T09:14:41.506Z,6.67
2022-11-28T09:17:08.313Z,7.30
2022-11-28T09:19:34.781Z,6.90
2022-11-28T09:22:01.261Z,6.60
2022-11-28T09:24:27.680Z,6.50
2022-11-28T09:26:54.229Z,6.93
2022-11-28T09:29:20.645Z,6.93
2022-11-28T09:31:47.768Z,7.37
2022-11-28T09:34:14.521Z,7.17
2022-11-28T09:36:41.856Z,6.93
2022-11-28T09:39:08.324Z,6.97
2022-11-28T09:41:40.671Z,6.83
2022-11-28T09:44:14.410Z,7.03
2022-11-28T09:46:42.155Z,7.80
2022-11-28T09:49:40.712Z,6.93
2022-11-28T09:52:25.614Z,6.83
2022-11-28T09:55:13.504Z,6.07
2022-11-28T09:57:43.153Z,6.90
2022-11-28T10:00:16.970Z,6.97
2022-11-28T10:02:55.976Z,6.77
2022-11-28T10:05:43.391Z,6.23
2022-11-28T10:08:21.941Z,7.27
2022-11-28T10:11:20.947Z,6.87
2022-11-28T10:14:14.527Z,7.10
2022-11-28T10:17:19.207Z,7.13
2022-11-28T10:19:59.433Z,7.30
2022-11-28T10:22:40.723Z,7.60
2022-11-28T10:25:17.023Z,7.63
2022-11-28T10:27:43.461Z,7.27
2022-11-28T10:30:23.376Z,6.53
2022-11-28T10:33:25.115Z,7.50
2022-11-28T10:35:57.542Z,7.33
2022-11-28T10:38:27.322Z,7.30
2022-11-28T10:41:25.378Z,7.27
2022-11-28T10:43:59.511Z,7.33
2022-11-28T10:46:26.057Z,7.07
2022-11-28T10:49:01.351Z,7.07
2022-11-28T10:51:45.312Z,7.33
2022-11-28T10:54:49.211Z,6.80
2022-11-28T10:57:19.411Z,7.10
2022-11-28T11:00:13.616Z,7.17
2022-11-28T11:02:46.561Z,6.87
2022-11-28T11:05:18.982Z,7.50
2022-11-28T11:07:54.031Z,6.90
2022-11-28T11:10:27.354Z,7.30
2022-11-28T11:12:53.818Z,7.40
2022-11-28T11:15:30.010Z,7.83
2022-11-28T11:17:57.803Z,6.70
2022-11-28T11:20:24.111Z,6.63
2022-11-28T11:22:59.134Z,7.80
2022-11-28T11:25:27.526Z,8.23
2022-11-28T11:28:01.009Z,7.80
2022-11-28T11:30:27.731Z,7.43
2022-11-28T11:32:55.988Z,7.47
2022-11-28T11:35:34.951Z,7.47
2022-11-28T11:38:20.062Z,7.47
2022-11-28T11:40:47.430Z,6.73
2022-11-28T11:43:31.919Z,6.53
2022-11-28T11:46:12.738Z,7.63
2022-11-28T11:48:40.055Z,8.07
2022-11-28T11:51:09.098Z,7.40
2022-11-28T11:53:35.520Z,7.57
2022-11-28T11:56:03.566Z,7.50
2022-11-28T11:58:40.245Z,7.27
2022-11-28T12:01:07.983Z,7.83
2022-11-28T12:03:47.474Z,7.27
2022-11-28T12:06:17.756Z,7.93
2022-11-28T12:08:50.767Z,7.23
2022-11-28T12:11:28.339Z,8.53
2022-11-28T12:13:57.607Z,7.70
2022-11-28T12:16:47.128Z,6.97
2022-11-28T12:19:46.999Z,7.00
2022-11-28T12:22:47.456Z,8.07
2022-11-28T12:25:15.650Z,7.80
2022-11-28T12:28:09.945Z,7.37
2022-11-28T12:31:08.797Z,7.97
2022-11-28T12:33:53.947Z,7.50
2022-11-28T12:36:57.347Z,7.40
2022-11-28T12:39:31.916Z,7.40
2022-11-28T12:42:28.180Z,8.37
2022-11-28T12:45:20.170Z,7.83
2022-11-28T12:47:49.376Z,7.37
2022-11-28T12:50:32.201Z,7.57
2022-11-28T12:53:20.468Z,7.23
2022-11-28T12:55:46.843Z,7.57
2022-11-28T12:58:19.152Z,6.90
2022-11-28T13:01:20.393Z,8.10
2022-11-28T13:03:55.651Z,8.03
2022-11-28T13:06:36.393Z,7.97
2022-11-28T13:09:21.645Z,8.20
2022-11-28T13:12:03.428Z,7.80
2022-11-28T13:14:36.117Z,8.10
2022-11-28T13:17:31.243Z,7.93
2022-11-28T13:20:33.101Z,8.10
2022-11-28T13:23:18.740Z,9.43
2022-11-28T13:26:08.048Z,8.10
2022-11-28T13:28:54.972Z,7.23
2022-11-28T13:31:26.615Z,7.50
2022-11-28T13:33:54.776Z,8.53
2022-11-28T13:39:36.050Z,7.70
2022-11-28T13:43:02.248Z,7.67
2022-11-28T13:45:01.884Z,7.57
2022-11-28T13:47:37.358Z,6.53
2022-11-28T13:50:22.835Z,7.67
2022-11-28T13:53:10.485Z,7.33
2022-11-28T13:55:41.003Z,7.40
2022-11-28T13:58:33.550Z,7.17
2022-11-28T14:01:00.828Z,7.87
2022-11-28T14:03:27.441Z,7.93
2022-11-28T14:05:56.885Z,7.30
2022-11-28T14:08:58.672Z,7.80
2022-11-28T14:11:47.418Z,7.60
2022-11-28T14:14:31.333Z,7.83
2022-11-28T14:17:28.882Z,7.13
2022-11-28T14:20:32.852Z,7.07
2022-11-28T14:23:30.774Z,7.00
2022-11-28T14:25:57.399Z,7.43
2022-11-28T14:28:30.318Z,6.87
2022-11-28T14:31:03.253Z,7.57
2022-11-28T14:33:34.068Z,7.60
2022-11-28T14:36:26.134Z,8.03
2022-11-28T14:39:06.141Z,7.03
2022-11-28T14:41:32.555Z,7.63
2022-11-28T14:44:36.414Z,8.43
2022-11-28T14:47:14.753Z,8.57
2022-11-28T14:49:41.165Z,7.33
2022-11-28T14:52:37.002Z,7.43
2022-11-28T14:54:56.899Z,7.83
2022-11-28T14:57:30.379Z,6.90
2022-11-28T15:00:04.799Z,7.77
2022-11-28T15:02:38.019Z,7.30
2022-11-28T15:05:10.425Z,6.83
2022-11-28T15:08:09.222Z,7.33
2022-11-28T15:10:38.527Z,7.83
2022-11-28T15:13:42.563Z,7.97
2022-11-28T15:16:14.025Z,7.07
2022-11-28T15:18:50.657Z,7.30
2022-11-28T15:21:18.630Z,7.83
2022-11-28T15:23:46.831Z,7.07
2022-11-28T15:26:27.878Z,8.37
2022-11-28T15:29:21.034Z,7.70
2022-11-28T15:31:49.010Z,8.00
2022-11-28T15:34:25.046Z,7.23
2022-11-28T15:36:53.312Z,7.77
2022-11-28T15:39:40.475Z,7.67
2022-11-28T15:42:32.335Z,7.17
2022-11-28T15:45:05.841Z,8.60
2022-11-28T15:47:32.672Z,8.00
2022-11-28T15:50:20.699Z,8.30
2022-11-28T15:53:18.045Z,8.07
2022-11-28T15:55:44.766Z,8.10
2022-11-28T15:58:31.405Z,9.13
2022-11-28T16:01:07.688Z,7.33
2022-11-28T16:03:43.599Z,8.53
2022-11-28T16:06:10.162Z,8.53
2022-11-28T16:08:40.442Z,7.53
2022-11-28T16:11:08.727Z,8.17
2022-11-28T16:13:37.765Z,8.10
2022-11-28T16:16:09.544Z,8.20
2022-11-28T16:18:36.014Z,8.60
2022-11-28T16:21:02.689Z,8.23
2022-11-28T16:23:33.750Z,8.23
2022-11-28T16:26:34.080Z,8.50
2022-11-28T16:29:03.471Z,8.53
2022-11-28T16:31:30.427Z,8.37
2022-11-28T16:33:57.396Z,8.00
2022-11-28T16:36:24.225Z,8.23
2022-11-28T16:38:53.345Z,9.00
2022-11-28T16:41:25.232Z,8.13
2022-11-28T16:44:15.996Z,8.70
2022-11-28T16:46:54.511Z,8.53
2022-11-28T16:49:37.353Z,8.17
2022-11-28T16:52:26.174Z,8.57
2022-11-28T16:54:56.974Z,8.20
2022-11-28T16:57:26.510Z,8.17
2022-11-28T16:59:56.598Z,8.67
2022-11-28T17:02:25.366Z,8.70
2022-11-28T17:04:52.871Z,8.43
2022-11-28T17:07:21.834Z,8.30
2022-11-28T17:09:49.398Z,8.63
2022-11-28T17:12:36.026Z,8.93
2022-11-28T17:15:03.316Z,8.57
2022-11-28T17:17:30.040Z,9.30
2022-11-28T17:19:56.551Z,9.30
2022-11-28T17:22:40.789Z,8.50
2022-11-28T17:25:13.893Z,8.37
2022-11-28T17:27:40.373Z,8.70
2022-11-28T17:30:07.468Z,8.70
2022-11-28T17:32:33.894Z,9.07
2022-11-28T17:35:03.857Z,8.67
2022-11-28T17:37:30.276Z,8.83
2022-11-28T17:40:15.317Z,8.63
2022-11-28T17:42:41.765Z,9.97
2022-11-28T17:45:14.974Z,8.23
2022-11-28T17:47:41.391Z,9.27
2022-11-28T17:50:07.938Z,8.63
2022-11-28T17:52:34.357Z,9.47
2022-11-28T17:55:07.048Z,8.80
2022-11-28T17:57:34.141Z,8.00
2022-11-28T18:00:00.766Z,9.93
2022-11-28T18:02:27.771Z,9.03
2022-11-28T18:04:54.226Z,8.27
2022-11-28T18:07:20.782Z,8.70
2022-11-28T18:09:47.900Z,8.70
2022-11-28T18:12:14.369Z,7.27
2022-11-28T18:14:40.805Z,8.23
2022-11-28T18:17:07.613Z,8.47
2022-11-28T18:19:34.628Z,8.00
2022-11-28T18:22:01.046Z,9.30
2022-11-28T18:24:27.455Z,8.53
2022-11-28T18:26:53.852Z,8.77
2022-11-28T18:29:20.280Z,8.93
2022-11-28T18:31:46.783Z,8.47
2022-11-28T18:34:13.390Z,8.73
2022-11-28T18:36:40.121Z,9.03
2022-11-28T18:39:13.376Z,8.93
2022-11-28T18:41:40.273Z,8.83
2022-11-28T18:44:07.728Z,8.50
2022-11-28T18:46:34.524Z,8.80
2022-11-28T18:49:01.521Z,8.57
2022-11-28T18:51:33.205Z,9.40
2022-11-28T18:54:02.439Z,9.10
2022-11-28T18:56:29.859Z,9.20
2022-11-28T18:58:56.984Z,9.17
2022-11-28T19:01:31.800Z,9.17
2022-11-28T19:04:07.665Z,8.60
2022-11-28T19:06:36.217Z,9.50
2022-11-28T19:09:05.526Z,8.23
2022-11-28T19:11:32.361Z,9.10
2022-11-28T19:13:58.880Z,8.63
2022-11-28T19:16:27.537Z,9.20
2022-11-28T19:18:54.180Z,9.23
2022-11-28T19:21:23.514Z,8.90
2022-11-28T19:23:50.563Z,9.20
2022-11-28T19:26:19.530Z,9.20
2022-11-28T19:28:46.607Z,9.03
2022-11-28T19:31:22.523Z,8.87
2022-11-28T19:34:00.537Z,9.37
2022-11-28T19:36:28.320Z,8.80
2022-11-28T19:38:54.724Z,8.70
2022-11-28T19:41:22.391Z,9.80
2022-11-28T19:43:48.870Z,8.53
2022-11-28T19:46:15.956Z,8.47
2022-11-28T19:48:42.472Z,9.57
2022-11-28T19:51:10.487Z,9.77
2022-11-28T19:53:38.278Z,8.67
2022-11-28T19:56:14.151Z,9.40
2022-11-28T19:58:41.014Z,9.03
2022-11-28T20:01:18.906Z,9.50
2022-11-28T20:03:47.780Z,8.93
2022-11-28T20:06:19.477Z,9.07
2022-11-28T20:08:46.590Z,8.70
2022-11-28T20:11:15.792Z,10.20
2022-11-28T20:13:42.412Z,8.67
2022-11-28T20:16:10.287Z,9.67
2022-11-28T20:18:38.183Z,10.37
2022-11-28T20:21:08.923Z,10.80
2022-11-28T20:23:43.765Z,10.60
2022-11-28T20:26:11.060Z,10.63
2022-11-28T20:28:38.592Z,10.43
2022-11-28T20:31:06.494Z,10.60
2022-11-28T20:33:33.626Z,11.13
2022-11-28T20:36:12.487Z,10.03
2022-11-28T20:38:38.901Z,10.37
2022-11-28T20:41:07.860Z,9.97
2022-11-28T20:43:36.222Z,10.33
2022-11-28T20:46:06.201Z,10.63
2022-11-28T20:48:32.645Z,10.27
2022-11-28T20:50:59.193Z,10.87
2022-11-28T20:53:27.082Z,10.97
2022-11-28T20:56:01.393Z,9.70
2022-11-28T20:58:27.926Z,10.00
2022-11-28T21:00:54.484Z,10.23
2022-11-28T21:03:21.155Z,9.93
2022-11-28T21:05:47.674Z,10.70
2022-11-28T21:08:14.083Z,10.33
2022-11-28T21:10:40.471Z,10.00
2022-11-28T21:13:07.223Z,10.00
2022-11-28T21:15:33.641Z,9.70
2022-11-28T21:18:00.071Z,11.27
2022-11-28T21:20:26.486Z,10.27
2022-11-28T21:22:52.909Z,10.27
2022-11-28T21:25:20.029Z,10.07
2022-11-28T21:27:46.442Z,10.57
2022-11-28T21:30:12.908Z,9.87
2022-11-28T21:32:39.312Z,10.40
2022-11-28T21:35:06.188Z,10.13
2022-11-28T21:37:32.735Z,11.23
2022-11-28T21:39:59.163Z,10.13
2022-11-28T21:42:25.573Z,10.60
2022-11-28T21:44:51.965Z,9.40
2022-11-28T21:47:18.399Z,9.87
2022-11-28T21:49:45.073Z,10.17
2022-11-28T21:52:12.156Z,10.80
2022-11-28T21:54:38.582Z,10.43
2022-11-28T21:57:05.025Z,10.27
2022-11-28T21:59:31.751Z,10.97
2022-11-28T22:01:58.278Z,10.03
2022-11-28T22:04:24.771Z,11.13
2022-11-28T22:06:51.244Z,11.50
2022-11-28T22:09:17.662Z,11.03
2022-11-28T22:11:44.067Z,9.93
2022-11-28T22:14:10.984Z,11.00
2022-11-28T22:16:37.492Z,11.00
2022-11-28T22:19:04.119Z,10.27
2022-11-28T22:24:17.548Z,10.77
2022-11-28T22:26:44.048Z,10.87
2022-11-28T22:29:10.497Z,10.50
2022-11-28T22:31:37.020Z,11.07
2022-11-28T22:34:03.566Z,10.70
2022-11-28T22:36:31.233Z,11.37
2022-11-28T22:38:58.379Z,11.30
2022-11-28T22:41:29.012Z,10.37
2022-11-28T22:44:00.202Z,11.00
2022-11-28T22:46:27.124Z,10.97
2022-11-28T22:48:53.533Z,9.80
2022-11-28T22:51:23.492Z,11.83
2022-11-28T22:53:54.705Z,11.60
2022-11-28T22:56:21.728Z,10.63
2022-11-28T22:58:48.694Z,11.40
2022-11-28T23:01:17.710Z,10.20
2022-11-28T23:03:44.896Z,12.23
2022-11-28T23:06:14.124Z,10.53
2022-11-28T23:08:40.876Z,11.40
2022-11-28T23:11:15.376Z,11.87
2022-11-28T23:13:42.243Z,11.67
2022-11-28T23:16:19.220Z,12.23
2022-11-28T23:18:47.251Z,12.40
2022-11-28T23:21:14.337Z,11.43
2022-11-28T23:23:41.102Z,11.37
2022-11-28T23:26:12.516Z,12.30
2022-11-28T23:28:38.977Z,11.20
2022-11-28T23:31:10.677Z,11.70
2022-11-28T23:33:38.034Z,11.90
2022-11-28T23:36:22.218Z,11.00
2022-11-28T23:38:50.475Z,12.10
2022-11-28T23:41:16.994Z,12.13
2022-11-28T23:43:43.559Z,12.00
2022-11-28T23:46:10.954Z,11.30
2022-11-28T23:48:37.742Z,11.93
2022-11-28T23:51:06.151Z,11.73
2022-11-28T23:53:33.686Z,12.87
2022-11-28T23:56:17.889Z,11.97
2022-11-28T23:58:44.329Z,12.40
